sensor_id;sensor_type;location;lat;lon;timestamp;temperature;humidity
24450;DHT22;13349;50.984;5.822;2023-06-10T00:01:15;19.50;99.90
24450;DHT22;13349;50.984;5.822;2023-06-10T00:03:43;19.60;99.90
24450;DHT22;13349;50.984;5.822;2023-06-10T00:06:10;19.50;99.90
24450;DHT22;13349;50.984;5.822;2023-06-10T00:08:37;19.60;99.90
24450;DHT22;13349;50.984;5.822;2023-06-10T00:11:05;19.80;99.90
24450;DHT22;13349;50.984;5.822;2023-06-10T00:13:32;19.70;99.90
24450;DHT22;13349;50.984;5.822;2023-06-10T00:15:59;19.50;99.90
24450;DHT22;13349;50.984;5.822;2023-06-10T00:18:26;19.40;99.90
24450;DHT22;13349;50.984;5.822;2023-06-10T00:20:56;19.20;99.90
24450;DHT22;13349;50.984;5.822;2023-06-10T00:23:28;19.00;99.90
24450;DHT22;13349;50.984;5.822;2023-06-10T00:25:56;18.80;99.90
24450;DHT22;13349;50.984;5.822;2023-06-10T00:28:23;18.60;99.90
24450;DHT22;13349;50.984;5.822;2023-06-10T00:30:50;18.50;99.90
24450;DHT22;13349;50.984;5.822;2023-06-10T00:33:17;18.30;1.00
24450;DHT22;13349;50.984;5.822;2023-06-10T00:35:44;18.30;1.00
24450;DHT22;13349;50.984;5.822;2023-06-10T00:38:14;18.20;1.00
24450;DHT22;13349;50.984;5.822;2023-06-10T00:40:41;18.20;1.00
24450;DHT22;13349;50.984;5.822;2023-06-10T00:43:08;18.20;1.00
24450;DHT22;13349;50.984;5.822;2023-06-10T00:45:35;18.20;1.00
24450;DHT22;13349;50.984;5.822;2023-06-10T00:48:02;18.10;1.00
24450;DHT22;13349;50.984;5.822;2023-06-10T00:50:30;18.00;1.00
24450;DHT22;13349;50.984;5.822;2023-06-10T00:52:58;18.00;1.00
24450;DHT22;13349;50.984;5.822;2023-06-10T00:55:26;17.90;1.00
24450;DHT22;13349;50.984;5.822;2023-06-10T00:57:53;17.80;1.00
24450;DHT22;13349;50.984;5.822;2023-06-10T01:00:21;17.80;1.00
24450;DHT22;13349;50.984;5.822;2023-06-10T01:02:48;17.80;7.70
24450;DHT22;13349;50.984;5.822;2023-06-10T01:05:17;17.80;68.00
24450;DHT22;13349;50.984;5.822;2023-06-10T01:07:47;17.80;99.90
24450;DHT22;13349;50.984;5.822;2023-06-10T01:10:20;17.70;99.90
24450;DHT22;13349;50.984;5.822;2023-06-10T01:12:52;17.60;99.90
24450;DHT22;13349;50.984;5.822;2023-06-10T01:15:22;17.60;99.90
24450;DHT22;13349;50.984;5.822;2023-06-10T01:17:55;17.60;99.90
24450;DHT22;13349;50.984;5.822;2023-06-10T01:20:23;17.60;99.90
24450;DHT22;13349;50.984;5.822;2023-06-10T01:22:53;17.50;1.00
24450;DHT22;13349;50.984;5.822;2023-06-10T01:25:21;17.60;1.00
24450;DHT22;13349;50.984;5.822;2023-06-10T01:27:53;17.60;1.00
24450;DHT22;13349;50.984;5.822;2023-06-10T01:30:22;17.70;1.00
24450;DHT22;13349;50.984;5.822;2023-06-10T01:32:51;17.70;1.00
24450;DHT22;13349;50.984;5.822;2023-06-10T01:35:18;17.70;1.00
24450;DHT22;13349;50.984;5.822;2023-06-10T01:37:46;17.70;1.00
24450;DHT22;13349;50.984;5.822;2023-06-10T01:40:16;17.60;1.00
24450;DHT22;13349;50.984;5.822;2023-06-10T01:42:43;17.60;1.00
24450;DHT22;13349;50.984;5.822;2023-06-10T01:45:10;17.60;1.00
24450;DHT22;13349;50.984;5.822;2023-06-10T01:47:37;17.70;1.00
24450;DHT22;13349;50.984;5.822;2023-06-10T01:50:04;17.80;1.00
24450;DHT22;13349;50.984;5.822;2023-06-10T01:52:31;17.70;1.00
24450;DHT22;13349;50.984;5.822;2023-06-10T01:54:58;17.80;1.00
24450;DHT22;13349;50.984;5.822;2023-06-10T01:57:26;17.90;1.00
24450;DHT22;13349;50.984;5.822;2023-06-10T01:59:53;17.90;1.00
24450;DHT22;13349;50.984;5.822;2023-06-10T02:02:20;17.90;1.00
24450;DHT22;13349;50.984;5.822;2023-06-10T02:04:47;17.90;1.00
24450;DHT22;13349;50.984;5.822;2023-06-10T02:07:14;17.90;1.00
24450;DHT22;13349;50.984;5.822;2023-06-10T02:09:41;17.90;1.00
24450;DHT22;13349;50.984;5.822;2023-06-10T02:12:09;17.90;1.00
24450;DHT22;13349;50.984;5.822;2023-06-10T02:14:37;17.90;1.00
24450;DHT22;13349;50.984;5.822;2023-06-10T02:17:04;17.80;1.00
24450;DHT22;13349;50.984;5.822;2023-06-10T02:19:31;17.70;1.00
24450;DHT22;13349;50.984;5.822;2023-06-10T02:22:02;17.50;1.00
24450;DHT22;13349;50.984;5.822;2023-06-10T02:24:28;17.50;1.00
24450;DHT22;13349;50.984;5.822;2023-06-10T02:26:55;17.40;1.00
24450;DHT22;13349;50.984;5.822;2023-06-10T02:29:25;17.30;1.00
24450;DHT22;13349;50.984;5.822;2023-06-10T02:31:54;17.30;1.00
24450;DHT22;13349;50.984;5.822;2023-06-10T02:34:21;17.20;1.00
24450;DHT22;13349;50.984;5.822;2023-06-10T02:36:48;17.20;1.00
24450;DHT22;13349;50.984;5.822;2023-06-10T02:39:16;17.20;6.90
24450;DHT22;13349;50.984;5.822;2023-06-10T02:41:43;17.20;79.60
24450;DHT22;13349;50.984;5.822;2023-06-10T02:44:10;17.10;99.90
24450;DHT22;13349;50.984;5.822;2023-06-10T02:46:37;17.10;99.90
24450;DHT22;13349;50.984;5.822;2023-06-10T02:49:05;17.00;99.90
24450;DHT22;13349;50.984;5.822;2023-06-10T02:51:32;17.00;99.90
24450;DHT22;13349;50.984;5.822;2023-06-10T02:53:59;17.10;99.90
24450;DHT22;13349;50.984;5.822;2023-06-10T02:56:26;17.10;99.90
24450;DHT22;13349;50.984;5.822;2023-06-10T02:58:53;17.00;99.90
24450;DHT22;13349;50.984;5.822;2023-06-10T03:01:21;16.80;99.90
24450;DHT22;13349;50.984;5.822;2023-06-10T03:03:48;16.60;1.00
24450;DHT22;13349;50.984;5.822;2023-06-10T03:06:17;16.50;1.00
24450;DHT22;13349;50.984;5.822;2023-06-10T03:08:44;16.50;1.00
24450;DHT22;13349;50.984;5.822;2023-06-10T03:11:11;16.40;1.00
24450;DHT22;13349;50.984;5.822;2023-06-10T03:13:38;16.30;83.70
24450;DHT22;13349;50.984;5.822;2023-06-10T03:16:05;16.30;99.90
24450;DHT22;13349;50.984;5.822;2023-06-10T03:18:33;16.20;99.90
24450;DHT22;13349;50.984;5.822;2023-06-10T03:21:00;16.20;1.00
24450;DHT22;13349;50.984;5.822;2023-06-10T03:23:29;16.20;1.00
24450;DHT22;13349;50.984;5.822;2023-06-10T03:25:56;16.20;1.00
24450;DHT22;13349;50.984;5.822;2023-06-10T03:28:23;16.20;1.00
24450;DHT22;13349;50.984;5.822;2023-06-10T03:30:50;16.10;1.00
24450;DHT22;13349;50.984;5.822;2023-06-10T03:33:17;16.10;1.00
24450;DHT22;13349;50.984;5.822;2023-06-10T03:35:44;16.20;68.60
24450;DHT22;13349;50.984;5.822;2023-06-10T03:38:11;16.20;99.90
24450;DHT22;13349;50.984;5.822;2023-06-10T03:40:39;16.30;99.90
24450;DHT22;13349;50.984;5.822;2023-06-10T03:43:06;16.40;99.90
24450;DHT22;13349;50.984;5.822;2023-06-10T03:45:33;16.50;99.90
24450;DHT22;13349;50.984;5.822;2023-06-10T03:48:00;16.50;97.10
24450;DHT22;13349;50.984;5.822;2023-06-10T03:50:29;16.60;16.90
24450;DHT22;13349;50.984;5.822;2023-06-10T03:52:55;16.60;1.00
24450;DHT22;13349;50.984;5.822;2023-06-10T03:55:22;16.70;1.00
24450;DHT22;13349;50.984;5.822;2023-06-10T03:57:51;16.70;1.00
24450;DHT22;13349;50.984;5.822;2023-06-10T04:00:18;16.80;1.00
24450;DHT22;13349;50.984;5.822;2023-06-10T04:02:47;16.80;1.00
24450;DHT22;13349;50.984;5.822;2023-06-10T04:05:15;16.90;1.00
24450;DHT22;13349;50.984;5.822;2023-06-10T04:07:42;16.90;1.00
24450;DHT22;13349;50.984;5.822;2023-06-10T04:10:10;16.90;1.00
24450;DHT22;13349;50.984;5.822;2023-06-10T04:12:37;16.90;1.00
24450;DHT22;13349;50.984;5.822;2023-06-10T04:15:06;16.90;1.00
24450;DHT22;13349;50.984;5.822;2023-06-10T04:17:33;16.90;1.00
24450;DHT22;13349;50.984;5.822;2023-06-10T04:20:00;17.00;1.00
24450;DHT22;13349;50.984;5.822;2023-06-10T04:22:28;17.00;99.90
24450;DHT22;13349;50.984;5.822;2023-06-10T04:24:56;17.20;99.90
24450;DHT22;13349;50.984;5.822;2023-06-10T04:27:24;17.40;99.90
24450;DHT22;13349;50.984;5.822;2023-06-10T04:29:51;17.40;99.90
24450;DHT22;13349;50.984;5.822;2023-06-10T04:32:20;17.50;47.40
24450;DHT22;13349;50.984;5.822;2023-06-10T04:34:47;17.80;1.00
24450;DHT22;13349;50.984;5.822;2023-06-10T04:37:14;18.00;1.00
24450;DHT22;13349;50.984;5.822;2023-06-10T04:39:41;18.10;1.00
24450;DHT22;13349;50.984;5.822;2023-06-10T04:42:08;18.20;1.00
24450;DHT22;13349;50.984;5.822;2023-06-10T04:44:35;18.60;99.90
24450;DHT22;13349;50.984;5.822;2023-06-10T04:47:02;19.00;16.70
24450;DHT22;13349;50.984;5.822;2023-06-10T04:49:31;19.30;1.00
24450;DHT22;13349;50.984;5.822;2023-06-10T04:51:58;19.60;1.00
24450;DHT22;13349;50.984;5.822;2023-06-10T04:54:25;19.70;1.00
24450;DHT22;13349;50.984;5.822;2023-06-10T04:56:52;19.90;99.90
24450;DHT22;13349;50.984;5.822;2023-06-10T04:59:19;20.00;99.90
24450;DHT22;13349;50.984;5.822;2023-06-10T05:01:47;20.10;13.50
24450;DHT22;13349;50.984;5.822;2023-06-10T05:04:13;20.30;1.00
24450;DHT22;13349;50.984;5.822;2023-06-10T05:06:42;20.60;1.00
24450;DHT22;13349;50.984;5.822;2023-06-10T05:09:09;20.70;1.00
24450;DHT22;13349;50.984;5.822;2023-06-10T05:11:36;20.90;1.00
24450;DHT22;13349;50.984;5.822;2023-06-10T05:14:03;21.00;1.00
24450;DHT22;13349;50.984;5.822;2023-06-10T05:16:30;21.10;1.00
24450;DHT22;13349;50.984;5.822;2023-06-10T05:18:57;21.00;1.00
24450;DHT22;13349;50.984;5.822;2023-06-10T05:21:24;21.20;1.00
24450;DHT22;13349;50.984;5.822;2023-06-10T05:23:52;21.30;99.90
24450;DHT22;13349;50.984;5.822;2023-06-10T05:26:20;21.40;99.90
24450;DHT22;13349;50.984;5.822;2023-06-10T05:28:47;21.60;99.90
24450;DHT22;13349;50.984;5.822;2023-06-10T05:31:14;21.70;99.90
24450;DHT22;13349;50.984;5.822;2023-06-10T05:33:41;22.00;99.90
24450;DHT22;13349;50.984;5.822;2023-06-10T05:36:08;22.00;99.90
24450;DHT22;13349;50.984;5.822;2023-06-10T05:38:35;22.00;99.90
24450;DHT22;13349;50.984;5.822;2023-06-10T05:41:03;22.10;99.90
24450;DHT22;13349;50.984;5.822;2023-06-10T05:43:30;22.30;99.90
24450;DHT22;13349;50.984;5.822;2023-06-10T05:45:57;22.40;99.90
24450;DHT22;13349;50.984;5.822;2023-06-10T05:48:24;22.50;99.90
24450;DHT22;13349;50.984;5.822;2023-06-10T05:50:51;22.60;99.90
24450;DHT22;13349;50.984;5.822;2023-06-10T05:53:18;22.90;83.70
24450;DHT22;13349;50.984;5.822;2023-06-10T05:55:45;23.10;38.40
24450;DHT22;13349;50.984;5.822;2023-06-10T05:58:14;23.30;4.90
24450;DHT22;13349;50.984;5.822;2023-06-10T06:00:41;23.10;1.00
24450;DHT22;13349;50.984;5.822;2023-06-10T06:03:08;23.20;1.00
24450;DHT22;13349;50.984;5.822;2023-06-10T06:05:36;23.20;1.00
24450;DHT22;13349;50.984;5.822;2023-06-10T06:08:03;22.80;1.00
24450;DHT22;13349;50.984;5.822;2023-06-10T06:10:30;22.60;1.00
24450;DHT22;13349;50.984;5.822;2023-06-10T06:12:57;22.80;1.00
24450;DHT22;13349;50.984;5.822;2023-06-10T06:15:26;22.80;1.00
24450;DHT22;13349;50.984;5.822;2023-06-10T06:17:53;23.00;1.00
24450;DHT22;13349;50.984;5.822;2023-06-10T06:20:21;22.80;1.00
24450;DHT22;13349;50.984;5.822;2023-06-10T06:22:48;22.50;1.00
24450;DHT22;13349;50.984;5.822;2023-06-10T06:25:15;22.40;1.00
24450;DHT22;13349;50.984;5.822;2023-06-10T06:27:42;22.30;1.00
24450;DHT22;13349;50.984;5.822;2023-06-10T06:30:09;22.30;1.00
